Time;durP1;ratioP1;P1;durP2;ratioP2;P2;SDS_P1;SDS_P2;PMS_P1;PMS_P2;Temp;Humidity;BMP_temperature;BMP_pressure;BME280_temperature;BME280_humidity;BME280_pressure;Samples;Min_cycle;Max_cycle;Signal;HPM_P1;HPM_P2
2023/10/15 00:03:15;;;;;;;6.80;1.55;;;;;;;8.60;100.00;100037.34;12211058;19;20010;-79
2023/10/15 00:07:17;;;;;;;4.63;1.90;;;;;;;8.57;100.00;100045.19;12215173;19;20006;-78
2023/10/15 00:11:21;;;;;;;3.95;1.77;;;;;;;8.53;100.00;100038.47;12214252;19;20010;-78
2023/10/15 00:15:28;;;;;;;5.38;1.70;;;;;;;8.53;100.00;100033.81;12237396;19;21812;-79
2023/10/15 00:19:32;;;;;;;5.80;1.80;;;;;;;8.53;100.00;100030.22;12204257;19;20011;-80
2023/10/15 00:23:36;;;;;;;4.80;1.92;;;;;;;8.52;100.00;100039.56;12213005;19;20076;-80
2023/10/15 00:27:42;;;;;;;5.68;2.13;;;;;;;8.49;100.00;100031.78;12209992;19;20011;-78
2023/10/15 00:31:44;;;;;;;4.60;1.65;;;;;;;8.47;100.00;100040.22;12193521;19;20006;-79
2023/10/15 00:35:49;;;;;;;8.70;2.73;;;;;;;8.39;100.00;100030.41;12221443;19;20103;-80
2023/10/15 00:39:54;;;;;;;5.00;1.80;;;;;;;8.32;100.00;100031.53;12218057;19;20581;-78
2023/10/15 00:43:56;;;;;;;3.85;1.63;;;;;;;8.26;100.00;100027.78;12196274;19;20106;-79
2023/10/15 00:52:09;;;;;;;5.47;2.10;;;;;;;8.16;100.00;100028.31;12214289;19;20461;-77
2023/10/15 00:56:11;;;;;;;7.65;2.28;;;;;;;8.12;100.00;100018.03;12189375;19;20568;-78
2023/10/15 01:04:36;;;;;;;4.13;1.73;;;;;;;8.07;100.00;100017.88;12190517;19;20079;-79
2023/10/15 01:08:40;;;;;;;4.77;1.33;;;;;;;8.04;100.00;100001.88;12218765;19;20420;-78
2023/10/15 01:12:42;;;;;;;5.13;1.70;;;;;;;7.99;100.00;100011.63;12218080;19;20002;-79
2023/10/15 01:16:44;;;;;;;;;;;;;;;7.97;100.00;100010.16;12194763;19;20034;-79
2023/10/15 01:20:46;;;;;;;6.00;2.08;;;;;;;7.92;100.00;99999.06;12200944;19;19919;-79
2023/10/15 01:24:55;;;;;;;5.13;2.00;;;;;;;7.89;100.00;100002.25;12208550;19;20011;-80
2023/10/15 01:28:57;;;;;;;5.40;1.60;;;;;;;7.87;100.00;99991.50;12191918;19;20078;-78
2023/10/15 01:33:07;;;;;;;4.82;2.00;;;;;;;7.83;100.00;100003.16;12212391;19;20006;-78
2023/10/15 01:41:28;;;;;;;9.43;2.45;;;;;;;7.80;100.00;100006.38;12185258;19;20011;-79
2023/10/15 01:45:37;;;;;;;11.93;2.17;;;;;;;7.84;100.00;100004.84;12204637;19;20006;-79
2023/10/15 01:49:40;;;;;;;7.25;2.30;;;;;;;7.88;100.00;100006.03;12188623;19;21386;-79
2023/10/15 01:53:45;;;;;;;3.97;1.42;;;;;;;7.88;100.00;100006.03;12206892;19;20453;-78
2023/10/15 01:57:46;;;;;;;6.75;1.90;;;;;;;7.87;100.00;100002.47;12209214;19;20053;-77
2023/10/15 02:01:51;;;;;;;9.23;2.20;;;;;;;7.82;100.00;99999.56;12184311;19;20011;-78
2023/10/15 02:05:54;;;;;;;4.40;1.65;;;;;;;7.81;100.00;100014.34;12192721;19;20011;-79
2023/10/15 02:09:56;;;;;;;3.95;2.00;;;;;;;7.83;100.00;100016.88;12204801;19;20074;-78
2023/10/15 02:13:59;;;;;;;6.30;2.25;;;;;;;7.84;100.00;100016.63;12175268;19;20002;-77
2023/10/15 02:18:03;;;;;;;5.10;1.75;;;;;;;7.83;100.00;100023.22;12200424;19;20019;-78
2023/10/15 02:22:06;;;;;;;2.72;1.40;;;;;;;7.78;100.00;100014.81;12200586;19;20524;-80
2023/10/15 02:26:08;;;;;;;7.05;2.95;;;;;;;7.75;100.00;100010.59;12176318;19;20021;-79
2023/10/15 02:30:12;;;;;;;6.15;2.00;;;;;;;7.73;100.00;100023.72;12201885;19;20002;-79
2023/10/15 02:34:14;;;;;;;7.93;2.03;;;;;;;7.67;100.00;100019.13;12204356;19;20588;-77
2023/10/15 02:38:17;;;;;;;7.47;2.22;;;;;;;7.67;100.00;100010.91;12176592;19;20421;-79
2023/10/15 02:42:30;;;;;;;8.10;1.95;;;;;;;7.68;100.00;100009.00;12201986;19;20003;-78
2023/10/15 02:50:34;;;;;;;8.13;2.20;;;;;;;7.70;100.00;100006.88;12197474;19;20011;-79
2023/10/15 02:54:37;;;;;;;;;;;;;;;7.68;100.00;100003.53;12214629;19;20013;-78
2023/10/15 02:58:40;;;;;;;4.28;1.98;;;;;;;7.64;100.00;99997.63;12197881;19;19924;-78
2023/10/15 03:02:45;;;;;;;6.50;2.00;;;;;;;7.60;100.00;99999.16;12209719;19;20045;-78
2023/10/15 03:06:48;;;;;;;6.47;1.98;;;;;;;7.55;100.00;99999.00;12210416;19;20011;-78
2023/10/15 03:10:56;;;;;;;;;;;;;;;7.50;100.00;100007.06;12186793;19;20082;-78
2023/10/15 03:14:58;;;;;;;5.95;2.55;;;;;;;7.48;100.00;99992.75;12208783;19;19978;-77
2023/10/15 03:19:19;;;;;;;7.22;1.85;;;;;;;7.48;100.00;99993.56;12207087;19;20002;-78
2023/10/15 03:23:21;;;;;;;8.65;2.03;;;;;;;7.49;100.00;99992.50;12185537;19;20019;-77
2023/10/15 03:27:27;;;;;;;8.65;1.88;;;;;;;7.57;100.00;99991.38;12207858;19;20003;-80
2023/10/15 03:31:32;;;;;;;5.65;2.20;;;;;;;7.62;100.00;99997.03;12188372;19;20010;-80
2023/10/15 03:35:37;;;;;;;3.97;1.60;;;;;;;7.69;100.00;99997.81;12206824;19;20007;-78
2023/10/15 03:43:46;;;;;;;4.97;2.10;;;;;;;7.73;100.00;99990.81;12201395;19;20038;-77
2023/10/15 03:47:48;;;;;;;9.23;2.00;;;;;;;7.73;100.00;99999.03;12226908;19;20018;-78
2023/10/15 03:51:50;;;;;;;5.25;2.17;;;;;;;7.74;100.00;99995.22;12221840;19;20010;-78
2023/10/15 03:55:55;;;;;;;3.53;1.65;;;;;;;7.76;100.00;100000.47;12191083;19;20025;-80
2023/10/15 03:59:57;;;;;;;10.02;2.47;;;;;;;7.77;100.00;100013.13;12214674;19;20026;-79
2023/10/15 04:04:03;;;;;;;9.05;2.60;;;;;;;7.75;100.00;100012.50;12216227;19;20018;-81
2023/10/15 04:08:10;;;;;;;4.00;1.88;;;;;;;7.71;100.00;100016.78;12204701;19;20043;-79
2023/10/15 04:12:12;;;;;;;7.97;1.80;;;;;;;7.72;100.00;100016.56;12214551;19;20361;-78
2023/10/15 04:16:14;;;;;;;5.50;2.08;;;;;;;7.72;100.00;100013.81;12213341;19;20070;-79
2023/10/15 04:20:35;;;;;;;5.95;2.10;;;;;;;7.66;100.00;100014.72;12185876;19;20030;-78
2023/10/15 04:24:38;;;;;;;6.80;2.15;;;;;;;7.64;100.00;100022.31;12206918;19;20002;-78
2023/10/15 04:28:42;;;;;;;7.47;2.15;;;;;;;7.70;100.00;100015.97;12192888;19;20018;-79
2023/10/15 04:32:45;;;;;;;10.45;1.90;;;;;;;7.75;100.00;100013.34;12217866;19;20027;-78
2023/10/15 04:36:48;;;;;;;6.32;2.50;;;;;;;7.75;100.00;100015.25;12219199;19;20031;-78
2023/10/15 04:45:00;;;;;;;6.03;1.75;;;;;;;7.65;100.00;100010.31;12244038;19;20639;-79
2023/10/15 04:49:07;;;;;;;6.30;2.13;;;;;;;7.63;100.00;100006.09;12256056;19;20055;-80
2023/10/15 04:53:15;;;;;;;7.20;2.50;;;;;;;7.61;100.00;100013.72;12224558;19;20009;-78
2023/10/15 04:57:17;;;;;;;5.78;2.00;;;;;;;7.58;100.00;100025.13;12250962;19;20003;-77
2023/10/15 05:01:19;;;;;;;5.80;1.63;;;;;;;7.57;100.00;100026.19;12239422;19;20090;-77
2023/10/15 05:05:21;;;;;;;8.98;2.53;;;;;;;7.62;100.00;100026.38;12215637;19;20065;-80
2023/10/15 05:09:23;;;;;;;10.35;2.90;;;;;;;7.66;100.00;100028.44;12223364;19;20070;-78
2023/10/15 05:13:24;;;;;;;6.78;2.33;;;;;;;7.73;100.00;100023.72;12188160;19;20053;-78
2023/10/15 05:17:26;;;;;;;6.28;2.30;;;;;;;7.83;100.00;100030.59;12218813;19;20003;-78
2023/10/15 05:21:29;;;;;;;6.78;2.60;;;;;;;7.82;100.00;100026.16;12215935;19;20006;-79
2023/10/15 05:25:32;;;;;;;7.80;1.80;;;;;;;7.75;100.00;100029.81;12188902;19;20465;-80
2023/10/15 05:29:36;;;;;;;6.97;1.92;;;;;;;7.68;100.00;100020.81;12215457;19;20038;-79
2023/10/15 05:33:38;;;;;;;4.25;2.20;;;;;;;7.60;100.00;100023.00;12216216;19;20007;-79
2023/10/15 05:37:40;;;;;;;8.15;2.20;;;;;;;7.55;100.00;100037.38;12189240;19;20051;-78
2023/10/15 05:41:42;;;;;;;9.57;2.92;;;;;;;7.50;100.00;100042.72;12205460;19;20003;-79
2023/10/15 05:45:47;;;;;;;10.55;2.28;;;;;;;7.47;100.00;100045.91;12207296;19;20468;-78
2023/10/15 05:49:49;;;;;;;4.03;1.63;;;;;;;7.46;100.00;100047.78;12186422;19;20003;-79
2023/10/15 05:53:51;;;;;;;8.63;2.10;;;;;;;7.44;100.00;100044.44;12202522;19;20002;-80
2023/10/15 05:57:53;;;;;;;9.35;2.50;;;;;;;7.44;100.00;100051.84;12205246;19;20960;-79
2023/10/15 06:01:54;;;;;;;12.20;2.92;;;;;;;7.45;100.00;100059.00;12178580;19;20018;-79
2023/10/15 06:05:57;;;;;;;10.07;2.58;;;;;;;7.45;100.00;100061.75;12203091;19;20007;-79
2023/10/15 06:09:59;;;;;;;9.73;2.90;;;;;;;7.44;100.00;100060.06;12211630;19;20015;-79
2023/10/15 06:14:04;;;;;;;;;;;;;;;7.41;100.00;100058.59;12182928;19;20015;-79
2023/10/15 06:18:06;;;;;;;7.05;2.45;;;;;;;7.43;100.00;100067.44;12202863;19;19914;-79
2023/10/15 06:22:08;;;;;;;8.02;2.42;;;;;;;7.47;100.00;100070.59;12205933;19;20018;-80
2023/10/15 06:26:10;;;;;;;7.93;2.63;;;;;;;7.54;100.00;100079.59;12187196;19;20006;-79
2023/10/15 06:30:16;;;;;;;6.95;2.40;;;;;;;7.62;100.00;100076.56;12222146;19;20014;-80
2023/10/15 06:34:24;;;;;;;4.53;2.47;;;;;;;7.70;100.00;100079.03;12195524;19;20007;-79
2023/10/15 06:38:26;;;;;;;6.80;2.20;;;;;;;7.81;100.00;100076.63;12242288;19;20014;-78
2023/10/15 06:42:28;;;;;;;7.82;2.70;;;;;;;7.95;100.00;100069.94;12240845;19;20013;-80
2023/10/15 06:46:31;;;;;;;6.75;2.40;;;;;;;8.10;100.00;100073.16;12204188;19;20003;-81
2023/10/15 06:50:33;;;;;;;9.48;2.92;;;;;;;8.22;100.00;100085.06;12222019;19;20011;-79
2023/10/15 06:54:35;;;;;;;9.70;2.57;;;;;;;8.33;100.00;100077.13;12214033;19;20010;-79
2023/10/15 06:58:36;;;;;;;7.85;2.50;;;;;;;8.45;100.00;100080.84;12195541;19;20368;-81
2023/10/15 07:02:38;;;;;;;7.72;2.97;;;;;;;8.57;100.00;100070.75;12208629;19;20014;-79
2023/10/15 07:06:40;;;;;;;8.80;2.95;;;;;;;8.73;100.00;100079.44;12214007;19;21095;-81
2023/10/15 07:10:43;;;;;;;7.78;3.00;;;;;;;8.84;100.00;100079.50;12200343;19;20475;-80
2023/10/15 07:14:45;;;;;;;7.85;2.53;;;;;;;9.06;100.00;100074.31;12217375;19;20014;-79
2023/10/15 07:18:47;;;;;;;9.52;3.17;;;;;;;9.30;100.00;100079.88;12211384;19;20015;-80
2023/10/15 07:22:49;;;;;;;9.18;2.40;;;;;;;9.54;100.00;100089.03;12189569;19;20007;-79
2023/10/15 07:26:52;;;;;;;11.48;2.50;;;;;;;9.72;100.00;100094.44;12246544;19;20062;-81
2023/10/15 07:30:55;;;;;;;11.30;2.60;;;;;;;9.72;100.00;100096.34;12247601;19;20781;-79
2023/10/15 07:34:57;;;;;;;10.75;2.38;;;;;;;9.80;100.00;100102.34;12201270;19;20672;-80
2023/10/15 07:38:59;;;;;;;8.50;2.55;;;;;;;10.00;100.00;100092.91;12216241;19;20031;-81
2023/10/15 07:43:02;;;;;;;5.87;1.93;;;;;;;10.21;100.00;100103.31;12211686;19;20014;-79
2023/10/15 07:47:05;;;;;;;4.05;2.00;;;;;;;10.56;100.00;100096.97;12191406;19;20037;-82
2023/10/15 07:51:07;;;;;;;8.10;2.30;;;;;;;10.84;100.00;100101.69;12202312;19;20007;-79
2023/10/15 07:55:13;;;;;;;3.72;1.63;;;;;;;10.94;100.00;100104.63;12207488;19;20010;-79
2023/10/15 07:59:15;;;;;;;7.07;2.67;;;;;;;10.95;100.00;100114.59;12183723;19;20047;-79
2023/10/15 08:03:17;;;;;;;5.25;1.80;;;;;;;10.92;100.00;100112.34;12210974;19;20106;-79
2023/10/15 08:07:22;;;;;;;6.88;2.15;;;;;;;10.79;100.00;100118.09;12213571;19;20007;-79
2023/10/15 08:11:24;;;;;;;8.50;1.98;;;;;;;10.76;100.00;100124.09;12191592;19;20026;-79
2023/10/15 08:15:27;;;;;;;6.05;1.95;;;;;;;11.03;100.00;100118.88;12207053;19;20498;-79
2023/10/15 08:19:45;;;;;;;6.57;2.08;;;;;;;11.43;100.00;100122.69;12210408;19;20010;-79
2023/10/15 08:24:00;;;;;;;7.05;2.53;;;;;;;11.76;99.99;100124.63;12209322;19;20046;-79
2023/10/15 08:28:02;;;;;;;7.10;2.10;;;;;;;12.12;92.18;100128.84;12210521;19;20022;-78
2023/10/15 08:32:05;;;;;;;;;;;;;;;12.36;89.83;100131.41;12192151;19;20074;-79
2023/10/15 08:36:08;;;;;;;5.88;1.88;;;;;;;12.49;86.81;100136.56;12207684;19;20000;-80
2023/10/15 08:40:15;;;;;;;5.63;1.47;;;;;;;12.45;86.69;100133.47;12201141;19;20548;-79
2023/10/15 08:44:21;;;;;;;5.32;1.60;;;;;;;12.40;85.42;100138.94;12175637;19;20090;-79
2023/10/15 08:48:25;;;;;;;4.63;1.42;;;;;;;12.34;85.39;100151.00;12196950;19;20006;-79
2023/10/15 08:52:27;;;;;;;2.85;1.30;;;;;;;12.15;85.51;100155.97;12183385;19;20010;-79
2023/10/15 08:56:33;;;;;;;7.17;1.70;;;;;;;12.21;83.87;100141.16;12196623;19;20070;-79
2023/10/15 09:00:39;;;;;;;3.03;1.30;;;;;;;12.27;83.14;100147.59;12200253;19;20015;-79
2023/10/15 09:04:45;;;;;;;6.35;1.77;;;;;;;12.33;82.37;100154.88;12198519;19;25539;-79
2023/10/15 09:08:49;;;;;;;6.22;1.45;;;;;;;12.34;81.91;100155.69;12228332;19;20051;-78
2023/10/15 09:12:51;;;;;;;4.70;1.20;;;;;;;12.32;81.48;100164.25;12210700;19;20006;-81
2023/10/15 09:16:53;;;;;;;7.15;1.50;;;;;;;12.36;81.16;100167.34;12196211;19;20188;-79
2023/10/15 09:20:59;;;;;;;5.35;1.17;;;;;;;12.40;80.21;100162.97;12209812;19;20042;-79
2023/10/15 09:25:02;;;;;;;5.22;1.50;;;;;;;12.55;77.69;100163.19;12196673;19;20013;-78
2023/10/15 09:29:24;;;;;;;4.32;1.60;;;;;;;12.58;73.97;100179.25;12190520;19;20038;-82
2023/10/15 09:33:31;;;;;;;4.93;1.20;;;;;;;12.44;75.66;100178.81;12210088;19;20007;-80
2023/10/15 09:37:35;;;;;;;7.70;1.60;;;;;;;12.44;76.29;100172.44;12192575;19;20010;-79
2023/10/15 09:42:16;;;;;;;5.85;1.35;;;;;;;12.31;75.85;100185.53;12213474;19;20026;-80
2023/10/15 09:46:20;;;;;;;4.45;1.35;;;;;;;11.99;76.54;100171.47;12212294;19;20011;-80
2023/10/15 09:50:25;;;;;;;6.82;1.70;;;;;;;11.90;78.23;100178.50;12186726;19;20002;-80
2023/10/15 09:54:29;;;;;;;6.53;1.70;;;;;;;11.80;80.19;100184.63;12209428;19;20006;-81
2023/10/15 09:58:37;;;;;;;4.95;1.50;;;;;;;11.60;80.23;100181.47;12199509;19;20023;-80
2023/10/15 10:02:52;;;;;;;5.07;1.50;;;;;;;11.48;81.36;100181.56;12240018;19;20088;-79
2023/10/15 10:07:19;;;;;;;5.55;1.67;;;;;;;11.63;80.90;100194.81;12214366;19;20017;-78
2023/10/15 10:11:47;;;;;;;4.70;1.13;;;;;;;11.95;79.52;100194.28;12195057;19;20023;-78
2023/10/15 10:15:54;;;;;;;2.67;1.42;;;;;;;12.42;76.46;100186.50;12204700;19;20014;-78
2023/10/15 10:20:00;;;;;;;2.95;1.00;;;;;;;12.63;72.82;100179.34;12181464;19;20037;-78
2023/10/15 10:24:08;;;;;;;3.63;1.45;;;;;;;12.66;73.20;100180.78;12203731;19;20007;-77
2023/10/15 10:28:22;;;;;;;6.25;1.58;;;;;;;12.85;70.46;100173.00;12200874;19;20355;-78
2023/10/15 10:32:26;;;;;;;2.55;1.17;;;;;;;13.14;70.36;100176.44;12181171;19;20089;-78
2023/10/15 10:36:30;;;;;;;4.97;1.38;;;;;;;13.28;67.01;100176.91;12199181;19;20014;-79
2023/10/15 10:40:50;;;;;;;2.70;0.90;;;;;;;12.99;63.46;100166.84;12186422;19;20019;-78
2023/10/15 10:44:56;;;;;;;2.05;0.88;;;;;;;12.64;64.42;100172.75;12200071;19;20006;-81
2023/10/15 10:49:08;;;;;;;2.30;0.77;;;;;;;12.48;64.06;100168.06;12195628;19;20014;-79
2023/10/15 10:53:10;;;;;;;6.10;0.98;;;;;;;12.32;63.55;100170.59;12182760;19;20054;-80
2023/10/15 10:57:18;;;;;;;2.25;1.10;;;;;;;11.98;66.58;100169.78;12194514;19;20413;-78
2023/10/15 11:01:21;;;;;;;3.25;1.00;;;;;;;11.78;66.19;100172.16;12196568;19;20030;-78
2023/10/15 11:05:24;;;;;;;3.80;1.00;;;;;;;12.28;65.01;100166.69;12179394;19;20003;-81
2023/10/15 11:09:25;;;;;;;2.20;1.00;;;;;;;12.66;61.70;100169.72;12198782;19;20011;-79
2023/10/15 11:13:28;;;;;;;2.08;0.73;;;;;;;12.95;59.99;100167.63;12179650;19;20034;-79
2023/10/15 11:17:30;;;;;;;;;;;;;;;13.09;57.83;100166.16;12201686;19;20010;-79
2023/10/15 11:21:32;;;;;;;3.92;1.10;;;;;;;13.34;57.43;100164.81;12195553;19;20010;-80
2023/10/15 11:25:35;;;;;;;2.90;0.90;;;;;;;13.81;56.29;100159.47;12166948;19;20468;-78
2023/10/15 11:29:37;;;;;;;;;;;;;;;13.70;54.63;100179.03;12212315;19;20330;-81
2023/10/15 11:33:39;;;;;;;1.45;0.70;;;;;;;13.57;57.13;100171.97;12207247;19;20259;-80
2023/10/15 11:37:44;;;;;;;1.88;0.82;;;;;;;14.27;55.77;100168.16;12179888;19;21353;-80
2023/10/15 11:41:50;;;;;;;3.10;0.70;;;;;;;14.83;54.82;100178.81;12202714;19;20011;-79
2023/10/15 11:45:56;;;;;;;2.72;0.93;;;;;;;14.83;53.16;100170.50;12218131;19;20056;-82
2023/10/15 11:49:59;;;;;;;2.97;1.00;;;;;;;15.45;50.72;100171.59;12197032;19;20043;-81
2023/10/15 11:54:01;;;;;;;4.20;0.90;;;;;;;16.21;48.76;100148.66;12219061;19;20060;-79
2023/10/15 11:58:10;;;;;;;2.10;0.68;;;;;;;16.41;46.15;100145.84;12219530;19;20014;-79
2023/10/15 12:02:13;;;;;;;1.55;0.70;;;;;;;17.05;43.34;100149.88;12204478;19;20013;-80
2023/10/15 12:06:18;;;;;;;1.65;0.60;;;;;;;17.76;42.50;100153.41;12212618;19;20158;-79
2023/10/15 12:10:21;;;;;;;4.00;0.80;;;;;;;18.29;40.10;100170.28;12217068;19;20010;-79
2023/10/15 12:14:24;;;;;;;2.97;0.60;;;;;;;16.69;42.34;100196.44;12187955;19;20002;-80
2023/10/15 12:18:26;;;;;;;4.70;1.25;;;;;;;14.97;47.22;100215.25;12207041;19;20002;-78
2023/10/15 12:22:28;;;;;;;;;;;;;;;13.96;50.93;100216.13;12187972;19;20006;-80
2023/10/15 12:26:31;;;;;;;3.10;0.90;;;;;;;13.30;53.99;100219.00;12215212;19;20338;-81
2023/10/15 12:30:34;;;;;;;2.33;0.80;;;;;;;12.99;55.12;100213.88;12206411;19;20097;-81
2023/10/15 12:34:39;;;;;;;2.97;0.73;;;;;;;12.60;57.76;100226.84;12183486;19;20025;-80
2023/10/15 12:38:43;;;;;;;1.45;0.60;;;;;;;12.15;59.10;100213.97;12194369;19;20835;-81
2023/10/15 12:42:45;;;;;;;2.58;1.05;;;;;;;11.77;61.07;100229.28;12196519;19;20027;-81
2023/10/15 12:46:47;;;;;;;2.97;0.53;;;;;;;11.66;63.61;100238.47;12177955;19;20021;-79
2023/10/15 12:50:50;;;;;;;1.42;0.70;;;;;;;11.33;66.81;100228.13;12201326;19;20006;-81
2023/10/15 12:54:53;;;;;;;0.95;0.50;;;;;;;11.19;69.13;100244.16;12209867;19;20023;-80
2023/10/15 12:58:55;;;;;;;2.53;0.60;;;;;;;11.45;69.67;100241.91;12187752;19;20010;-80
2023/10/15 13:02:58;;;;;;;1.53;0.80;;;;;;;11.61;69.44;100239.22;12210800;19;20643;-78
2023/10/15 13:07:03;;;;;;;2.88;0.70;;;;;;;11.96;68.64;100249.28;12209436;19;20018;-80
2023/10/15 13:11:05;;;;;;;1.67;0.50;;;;;;;12.12;68.03;100252.31;12188945;19;20395;-79
2023/10/15 13:15:08;;;;;;;1.07;0.67;;;;;;;12.51;67.31;100247.72;12207806;19;20670;-81
2023/10/15 13:19:10;;;;;;;;;;;;;;;12.75;63.53;100245.59;12210253;19;20362;-81
2023/10/15 13:23:12;;;;;;;2.15;0.68;;;;;;;12.83;63.93;100252.66;12176304;19;19915;-82
2023/10/15 13:27:14;;;;;;;2.00;0.68;;;;;;;12.90;64.47;100243.06;12204647;19;20003;-81
2023/10/15 13:31:15;;;;;;;3.70;1.02;;;;;;;12.70;64.30;100251.91;12223304;19;20010;-82
2023/10/15 13:35:19;;;;;;;1.35;0.60;;;;;;;12.53;63.38;100264.91;12189532;19;20028;-81
2023/10/15 13:39:28;;;;;;;3.08;1.00;;;;;;;12.55;63.14;100251.66;12201432;19;20026;-80
2023/10/15 13:43:31;;;;;;;2.38;0.80;;;;;;;12.39;63.25;100275.44;12187795;19;20022;-80
2023/10/15 13:47:35;;;;;;;;;;;;;;;12.40;63.38;100277.13;12212808;19;20007;-79
2023/10/15 13:51:38;;;;;;;1.52;0.77;;;;;;;12.41;63.94;100277.97;12212337;19;20306;-80
2023/10/15 13:55:39;;;;;;;2.95;0.90;;;;;;;12.59;63.07;100268.59;12181945;19;20022;-79
2023/10/15 13:59:41;;;;;;;2.95;0.70;;;;;;;12.82;62.81;100268.41;12220189;19;20351;-79
2023/10/15 14:03:45;;;;;;;4.07;1.17;;;;;;;12.90;61.39;100270.72;12212317;19;20024;-78
2023/10/15 14:07:49;;;;;;;3.70;1.00;;;;;;;12.77;61.61;100265.56;12188050;19;20011;-80
2023/10/15 14:11:51;;;;;;;3.13;0.77;;;;;;;12.80;62.29;100269.75;12207593;19;20031;-80
2023/10/15 14:15:54;;;;;;;4.07;0.77;;;;;;;12.87;60.97;100273.16;12206691;19;20003;-82
2023/10/15 14:19:58;;;;;;;2.70;1.02;;;;;;;12.92;60.64;100276.00;12187388;19;20021;-80
2023/10/15 14:24:01;;;;;;;4.65;1.02;;;;;;;12.91;61.37;100274.31;12209149;19;20007;-78
2023/10/15 14:28:03;;;;;;;2.27;0.80;;;;;;;13.03;62.05;100271.44;12204736;19;20526;-80
2023/10/15 14:32:04;;;;;;;4.03;0.88;;;;;;;13.19;59.73;100284.41;12186264;19;20010;-81
2023/10/15 14:36:07;;;;;;;3.67;0.65;;;;;;;13.30;59.11;100285.44;12203069;19;20466;-80
2023/10/15 14:40:10;;;;;;;4.83;0.70;;;;;;;13.58;58.18;100276.94;12204734;19;20006;-79
2023/10/15 14:44:12;;;;;;;3.75;0.77;;;;;;;13.82;58.76;100282.19;12178896;19;20511;-79
2023/10/15 14:48:17;;;;;;;3.13;0.98;;;;;;;13.96;57.07;100268.78;12214602;19;20066;-80
2023/10/15 14:52:19;;;;;;;6.85;1.17;;;;;;;13.86;56.81;100264.81;12230069;19;20054;-81
2023/10/15 14:56:21;;;;;;;4.67;0.90;;;;;;;13.83;54.67;100275.53;12196784;19;20496;-80
2023/10/15 15:00:23;;;;;;;2.07;1.00;;;;;;;13.48;55.46;100268.50;12218893;19;20071;-80
2023/10/15 15:04:28;;;;;;;2.58;0.80;;;;;;;13.19;56.28;100282.47;12189317;19;20010;-80
2023/10/15 15:08:30;;;;;;;1.35;0.60;;;;;;;12.80;56.57;100287.19;12214346;19;20010;-80
2023/10/15 15:12:32;;;;;;;1.10;0.55;;;;;;;12.75;57.38;100284.31;12214683;19;20618;-82
2023/10/15 15:16:34;;;;;;;2.23;1.17;;;;;;;12.69;58.22;100290.88;12193138;19;20018;-80
2023/10/15 15:20:36;;;;;;;3.33;1.08;;;;;;;12.51;58.98;100294.72;12223496;19;20048;-81
2023/10/15 15:24:39;;;;;;;4.30;0.93;;;;;;;12.39;59.97;100292.03;12226553;19;20517;-80
2023/10/15 15:28:41;;;;;;;2.88;0.88;;;;;;;12.36;60.67;100306.34;12204107;19;20030;-79
2023/10/15 15:32:45;;;;;;;2.67;0.80;;;;;;;12.20;61.89;100305.25;12223642;19;20003;-80
2023/10/15 15:36:48;;;;;;;2.80;1.33;;;;;;;11.99;62.03;100309.56;12225920;19;20363;-81
2023/10/15 15:40:52;;;;;;;1.77;0.75;;;;;;;11.85;62.60;100314.53;12199124;19;20018;-81
2023/10/15 15:44:58;;;;;;;1.55;0.80;;;;;;;11.77;62.72;100320.41;12239289;19;20018;-85
2023/10/15 15:49:13;;;;;;;2.70;0.95;;;;;;;11.66;64.20;100315.78;12241749;19;20086;-82
2023/10/15 15:53:16;;;;;;;3.40;1.00;;;;;;;11.55;64.47;100320.25;12216158;19;20006;-81
2023/10/15 15:57:18;;;;;;;1.03;0.67;;;;;;;11.50;64.41;100319.28;12230547;19;20007;-82
2023/10/15 16:01:24;;;;;;;;;;;;;;;11.49;64.34;100321.22;12216897;19;20773;-82
2023/10/15 16:05:45;;;;;;;3.30;0.77;;;;;;;11.49;65.07;100332.25;12192681;19;20253;-80
2023/10/15 16:09:47;;;;;;;2.13;1.00;;;;;;;11.39;65.01;100332.88;12201964;19;20022;-81
2023/10/15 16:13:49;;;;;;;1.40;0.73;;;;;;;11.26;65.63;100338.63;12201074;19;20014;-81
2023/10/15 16:17:53;;;;;;;2.45;0.60;;;;;;;11.21;66.25;100338.50;12218980;19;20006;-81
2023/10/15 16:21:55;;;;;;;1.95;0.80;;;;;;;11.14;67.55;100343.31;12219807;19;20026;-82
2023/10/15 16:25:56;;;;;;;2.40;0.55;;;;;;;11.01;67.92;100355.44;12193135;19;20027;-80
2023/10/15 16:29:59;;;;;;;3.25;1.00;;;;;;;10.84;68.45;100357.22;12219303;19;20025;-81
2023/10/15 16:34:02;;;;;;;4.93;0.90;;;;;;;10.67;69.00;100368.09;12223416;19;20006;-81
2023/10/15 16:38:04;;;;;;;1.98;1.00;;;;;;;10.52;69.46;100375.97;12199920;19;20003;-81
2023/10/15 16:42:06;;;;;;;2.08;0.77;;;;;;;10.32;70.53;100387.28;12217399;19;20015;-82
2023/10/15 16:46:08;;;;;;;2.55;1.05;;;;;;;10.16;71.49;100394.28;12220384;19;20006;-81
2023/10/15 16:50:11;;;;;;;2.73;1.20;;;;;;;10.00;72.24;100390.25;12195192;19;20046;-80
2023/10/15 16:54:13;;;;;;;3.53;1.20;;;;;;;9.83;73.15;100398.31;12214604;19;20013;-82
2023/10/15 16:58:15;;;;;;;4.20;1.20;;;;;;;9.67;74.88;100407.19;12223616;19;20080;-80
2023/10/15 17:02:17;;;;;;;5.57;3.08;;;;;;;9.54;78.43;100409.00;12204889;19;20010;-79
2023/10/15 17:06:26;;;;;;;2.47;1.50;;;;;;;9.46;80.89;100416.69;12228910;19;20726;-81
2023/10/15 17:10:28;;;;;;;3.20;1.10;;;;;;;9.39;81.57;100429.69;12196579;19;20018;-81
2023/10/15 17:14:30;;;;;;;2.95;1.08;;;;;;;9.27;81.61;100435.94;12211069;19;21532;-80
2023/10/15 17:18:32;;;;;;;2.17;1.20;;;;;;;9.17;82.20;100443.03;12214637;19;20017;-80
2023/10/15 17:22:34;;;;;;;4.25;1.38;;;;;;;9.11;83.48;100447.53;12192419;19;19998;-80
2023/10/15 17:26:36;;;;;;;3.35;1.15;;;;;;;9.00;85.41;100454.56;12212688;19;20014;-79
2023/10/15 17:30:38;;;;;;;2.13;1.07;;;;;;;8.86;86.77;100453.00;12211803;19;19999;-79
2023/10/15 17:34:40;;;;;;;2.20;1.05;;;;;;;8.74;87.02;100465.78;12196743;19;20082;-80
2023/10/15 17:38:43;;;;;;;3.53;1.00;;;;;;;8.61;88.13;100459.31;12211468;19;20009;-80
2023/10/15 17:42:46;;;;;;;2.95;1.38;;;;;;;8.54;88.57;100469.50;12211893;19;20015;-80
2023/10/15 17:46:48;;;;;;;2.33;1.17;;;;;;;8.45;90.31;100459.84;12190539;19;20742;-79
2023/10/15 17:50:54;;;;;;;5.93;1.08;;;;;;;8.37;91.21;100457.31;12207970;19;20006;-79
2023/10/15 17:54:56;;;;;;;4.32;1.38;;;;;;;8.26;92.99;100474.47;12215910;19;20006;-82
2023/10/15 17:58:58;;;;;;;3.70;0.90;;;;;;;8.15;94.27;100474.09;12185602;19;20007;-81
2023/10/15 18:03:00;;;;;;;3.65;1.17;;;;;;;8.05;96.07;100470.97;12206832;19;20006;-79
2023/10/15 18:07:03;;;;;;;2.67;1.30;;;;;;;8.00;97.54;100479.00;12204501;19;20011;-81
2023/10/15 18:11:06;;;;;;;5.18;1.25;;;;;;;7.92;98.68;100477.34;12182012;19;20018;-82
2023/10/15 18:15:10;;;;;;;;;;;;;;;7.86;99.45;100482.88;12208294;19;20017;-81
2023/10/15 18:19:12;;;;;;;3.28;1.45;;;;;;;7.81;98.73;100485.41;12201115;19;19919;-77
2023/10/15 18:23:15;;;;;;;3.60;1.10;;;;;;;7.76;100.00;100484.16;12194404;19;20556;-79
2023/10/15 18:27:16;;;;;;;3.63;1.40;;;;;;;7.69;100.00;100490.72;12219454;19;20519;-81
2023/10/15 18:31:21;;;;;;;1.50;1.00;;;;;;;7.60;100.00;100490.09;12218812;19;20015;-81
2023/10/15 18:35:23;;;;;;;4.55;1.20;;;;;;;7.53;100.00;100501.09;12211647;19;20003;-81
2023/10/15 18:39:25;;;;;;;4.18;1.73;;;;;;;7.51;100.00;100497.69;12225351;19;20015;-81
2023/10/15 18:43:27;;;;;;;2.43;1.20;;;;;;;7.46;100.00;100489.25;12197986;19;20066;-80
2023/10/15 18:47:33;;;;;;;2.78;1.52;;;;;;;7.42;100.00;100482.53;12226003;19;20017;-82
2023/10/15 18:51:35;;;;;;;4.78;2.30;;;;;;;7.38;100.00;100496.88;12228214;19;20007;-80
2023/10/15 18:55:39;;;;;;;2.65;1.30;;;;;;;7.31;100.00;100503.19;12204566;19;20014;-81
2023/10/15 18:59:40;;;;;;;3.97;1.38;;;;;;;7.26;100.00;100505.75;12226067;19;20060;-80
2023/10/15 19:03:42;;;;;;;3.05;1.38;;;;;;;7.24;100.00;100507.84;12221841;19;20111;-81
2023/10/15 19:07:44;;;;;;;2.03;1.23;;;;;;;7.16;100.00;100510.78;12201844;19;20475;-81
2023/10/15 19:11:47;;;;;;;2.22;1.20;;;;;;;7.12;100.00;100514.19;12213440;19;20011;-80